Home > Products > Valid Products > FWS

000
FNUS75 KBOU 011225
FWSBOU

SPOT FORECAST FOR BURCHFIELD RX...BOULDER COUNTY SHERIFFS OFFICE/PARKS AND OPEN SPA
NATIONAL WEATHER SERVICE DENVER/BOULDER CO
604 AM MDT FRI MAY 1 2015

FORECAST IS BASED ON IGNITION TIME OF 1300 MDT ON MAY 01.
IF CONDITIONS BECOME UNREPRESENTATIVE...CONTACT THE NATIONAL
WEATHER SERVICE.

.DISCUSSION...MOISTURE LEVELS HAVE INCREASED ACROSS COLORADO TODAY
WHICH WILL RESULT IN STRONGER STORMS THIS AFTERNOON AND EVENING.
EXPECT HEAVY RAIN AND SMALL HAIL WITH THE STORMS. TEMPERATURES WILL
BE COOLER TODAY ALONG WITH HIGHER HUMIDITY LEVELS. LOW LEVEL
INVERSIONS WILL KEEP SMOKE DISPERSAL POOR UNTIL MID AFTERNOON.

.TODAY...

SKY/WEATHER.........MOSTLY CLOUDY. PATCHY FOG UNTIL 0900. SLIGHT
                    CHANCE OF THUNDERSTORMS AFTER 1200 UNTIL
                    1400...THEN CHANCE OF THUNDERSTORMS.
MAX TEMPERATURE.....AROUND 67.
MIN HUMIDITY........47%.
WIND (20 FT)........UPSLOPE/UPVALLEY 4-10 MPH. GUSTY AND ERRATIC
                    WINDS EXPECTED NEAR THUNDERSTORMS AFTER 1200.
CWR.................5 PERCENT INCREASING TO 20 PERCENT.
MIXING HEIGHT.......5400-6400 FT AGL.
TRANSPORT WINDS.....LIGHT WINDS UNTIL 1200...THEN SOUTH AROUND 10
                    MPH.
SMOKE DISPERSAL.....POOR UNTIL 1500...THEN FAIR.

.TONIGHT...
SKY/WEATHER.........MOSTLY CLOUDY UNTIL 2100...THEN PARTLY
                    CLOUDY(35-45%). CHANCE OF THUNDERSTORMS UNTIL
                    2000...THEN SLIGHT CHANCE OF THUNDERSTORMS
                    UNTIL 2200.
MIN TEMPERATURE.....AROUND 45.
MAX HUMIDITY........86%.
WIND (20 FT)........DOWNSLOPE/DOWNVALLEY 2-8 MPH. GUSTY AND ERRATIC
                    WINDS EXPECTED NEAR THUNDERSTORMS UNTIL 2200.
CWR.................20 PERCENT DECREASING TO 5 PERCENT EARLY IN THE
                    EVENING.
MIXING HEIGHT.......5200-6200 FT AGL UNTIL 2100. BELOW 1000 FT AGL
                    AFTER 2400.
TRANSPORT WINDS.....SOUTH AROUND 10 MPH UNTIL 2400...THEN WEST.
SMOKE DISPERSAL.....FAIR UNTIL 2200...THEN POOR.

.SATURDAY...
SKY/WEATHER.........MOSTLY SUNNY UNTIL 0700...THEN PARTLY
                    CLOUDY(40-50%) UNTIL 1300...THEN MOSTLY CLOUDY.
                    SLIGHT CHANCE OF THUNDERSTORMS AFTER 1200.
MAX TEMPERATURE.....AROUND 79.
MIN HUMIDITY........24%.
WIND (20 FT)........UPSLOPE/UPVALLEY 4-10 MPH. GUSTY AND ERRATIC
                    WINDS EXPECTED NEAR THUNDERSTORMS AFTER 1200.
CWR.................5 PERCENT.
MIXING HEIGHT.......BELOW 1000 FT AGL UNTIL 0900. 11400-12400 FT
                    AGL AFTER 1200.
TRANSPORT WINDS.....LIGHT WINDS UNTIL 1200...THEN SOUTHWEST AROUND
                    10 MPH.
SMOKE DISPERSAL.....POOR UNTIL 1100. GOOD AFTER 1200.


FIRE WEATHER TABLE FOR BURCHFIELD RX.

+++  DATA IN THE FOLLOWING TABLE HAS BEEN SAMPLED DIRECTLY FROM THE
     FORECAST DATABASE.  VALUES IN THE TABLE MAY VARY SLIGHTLY FROM
     INFORMATION IN THE NARRATIVE FORECAST.  FEEDBACK WELCOME.  +++

FORECAST SC PP WR AT RH  20-FT  G H L  15KFT  MIXG  TRANS VENTL  AJTV
VALID AT  %  %  %  F  %   WIND  S I A   WIND   HGT   WIND  RATE RATNG
                           MPH  T   L    MPH   AGL    MPH KT-FT

05/01-06 73  2  0 46 96   N  5  5 2 1 WNW 13  1795 NNE  7 10325 P
05/01-07 75  3  1 47 95 NNE  5  5 2 1   W 13  2308  NE  6 10701 P
05/01-08 78  3  1 48 94 ENE  5  5 2 1   W 14  2822   E  5  9928 P
05/01-09 80  3  1 51 86 ENE  5  5 2 1   W 14  3336 ESE  2  8006 P
05/01-10 82  6  1 54 77   E  5  5 2 1   W 16  3821 ESE  5 13378 P
05/01-11 80  6  1 57 67 ESE  5  5 3 1   W 20  4305 SSE  6 19817 P
05/01-12 77 18  4 60 60  SE  5  5 3 3   W 22  4789   S  7 27324 P
05/01-13 75 24  5 63 54  SE  6  6 3 3   W 21  5405   S  7 32795 P
05/01-14 78 31 10 65 52 SSE  6  6 3 4   W 21  6020   S  7 38712 P
05/01-15 81 37 15 67 49   S  7  7 3 4   W 20  6635   S  8 45076  F
05/01-16 83 43 20 67 48   S  7  7 3 4   W 21  6537   S  8 46237  F
05/01-17 80 43 20 67 47   S  7  7 3 4   W 23  6440   S  8 47344  F
05/01-18 76 41 18 65 50   S  6  6 3 4   W 24  6342   S  9 48395  F
05/01-19 69 38 16 63 55   S  5  5 3 4   W 22  5704   S  9 45403  F
05/01-20 62 24  5 61 60   S  3  3 3 3   W 21  5066   S  9 41990  F
05/01-21 55 15  3 58 67   S  3  3 3 3   W 18  4427   S 10 38158 P
05/01-22 48  6  1 56 71   S  3  3 3 1   W 20  3265   S  9 26659 P
05/01-23 41  4  1 54 74  SW  5  5 3 1 WNW 22  2103 SSW  9 16216 P
05/02-00 34  1  0 52 77  SW  5  5 3 1 WNW 24   941 SSW  8  6829 P
05/02-01 32  1  0 50 81 WSW  5  5 3 1 WNW 23   837  SW  7  5225 P
05/02-02 30  1  0 49 82   W  5  5 3 1 WNW 23   733 WSW  6  3832 P
05/02-03 29  1  0 47 86 WNW  5  5 3 1 WNW 23   630   W  5  2650 P
05/02-04 27  1  0 46 85 WNW  5  5 3 1 WNW 23   630   W  6  3024 P
05/02-05 25  1  0 45 84   W  5  5 4 1 WNW 22   630   W  6  3399 P
05/02-06 27  0  0 46 76   W  5  5 4 1 WNW 22   631   W  7  3774 P
05/02-07 32  0  0 49 75   W  3  3 4 1 WNW 23   775   W  6  3866 P
05/02-08 37  0  0 54 66  SW  2  2 4 1   W 24   919   W  5  3670 P
05/02-09 42  0  0 59 57 SSW  2  2 4 1   W 25  1063   W  3  3250 P
05/02-10 46  2  0 65 46   S  2  2 4 1   W 28  4190   W  5 18028 P
05/02-11 51  5  1 70 37   S  2  2 3 1   W 29  7316   W  7 40600  F
05/02-12 56 12  2 74 30 SSE  3  3 3 2   W 31 10443 WSW  8 70967   G
05/02-13 61 14  3 77 27   S  5  5 3 2   W 29 11328 WSW  8 80021   G
05/02-14 65 17  3 78 25  SW  5  5 3 3   W 26 12213 WSW  8 89549   G
05/02-15 70 19  4 79 24 WSW  6  6 3 3   W 23 13099 WSW  9 99552   G
05/02-16 69 17  3 79 24 WSW  6  6 3 3   W 23 12208 WSW  9 99540   G
05/02-17 66 14  3 78 25  SW  7  7 4 2   W 22 11317  SW 10 98542   G
05/02-18 65 12  2 75 28  SW  7  7 4 2   W 22 10426  SW 10 96558   G
05/02-19 65 12  2 72 32  SW  7  7 4 2   W 22  7441  SW 12 77194   G
05/02-20 65 12  2 67 39 WSW  7  7 5 2 WNW 22  4455 WSW 13 51179  F
05/02-21 53  1  0 63 46 WSW  7  7 5 1 WNW 22  1469 WSW 15 18514 P
05/02-22 53  1  0 61 49 WSW  7  7 5 1 WNW 22  1261 WSW 13 14241 P
05/02-23 53  1  0 59 52   W  6  6 4 1 WNW 22  1053   W 12 10512 P
05/03-00 40  0  0 57 55   W  6  6 4 1 WNW 23   845   W 10  7328 P
05/03-01 40  0  0 56 56   W  6  6 4 1 WNW 22   788   W 10  6800 P
05/03-02 40  0  0 53 60   W  6  6 4 1 WNW 21   732   W 10  6278 P
05/03-03 40  0  0 51 63   W  6  6 4 1 WNW 20   676   W 10  5761 P
05/03-04 40  0  0 49 67   W  6  6 4 1 WNW 17   665   W  9  5510 P
05/03-05 40  0  0 47 71   W  6  6 4 1 WNW 15   653   W  9  5264 P
05/03-06 56  8  2 48 68   W  6  6 4 1   W 13   642   W  9  5024 P
05/03-07 56  8  2 51 63   W  5  5 4 1   W 12   845   W  8  5830 P
05/03-08 56  8  2 57 53   W  5  5 4 1   W 10  1048 WNW  7  6260 P
05/03-09 56  8  2 63 44 WNW  3  3 4 1   W  9  1251 WNW  6  6314 P
05/03-10 56  8  2 68 37  NW  3  3 4 1 WSW  9  4971 WNW  5 20772 P
05/03-11 56  8  2 72 32 NNE  3  3 3 1 WSW  9  8692  NW  3 28752 P
05/03-12 77 30  9 75 28  NE  3  3 3 4 WSW  9 12413  NW  2 30254 P
05/03-13 77 30  9 76 28 NNE  5  5 3 4  SW  9 12378 NNW  2 26602 P
05/03-14 77 30  9 76 28   N  6  6 3 4   S  9 12343   N  2 22970 P
05/03-15 77 30  9 75 29   N  7  7 3 4 SSE  9 12308 NNE  2 19359 P
05/03-16 77 30  9 72 33   N  8  8 3 4   S 12 10784   N  2 18965 P
05/03-17 77 30  9 69 38   N  8  8 2 4   S 15  9260   N  2 18006 P
05/03-18 75 27  7 65 45   N  8  8 2 4   S 17  7737   N  2 16481 P
05/03-19 75 27  7 62 51 NNE  8  8 2 4 SSW 15  6714   N  5 28021 P
05/03-20 75 27  7 59 59  NE  7  7 2 4  SW 13  5691 ENE  7 35381 P
05/03-21 75 27  7 56 66 ENE  6  6 2 4  SW 10  4668   E  9 38560 P
05/03-22 75 27  7 54 72   E  5  5 2 4 WSW 12  4410   E  8 31426 P
05/03-23 75 27  7 52 78   S  5  5 2 4 WNW 13  4153 ESE  7 24877 P
05/04-00 53  4  1 51 80  SW  3  3 2 1  NW 15  3895 ESE  6 18912 P
05/04-01 53  4  1 50 81 SSW  3  3 2 1  NW 15  3564  SE  6 17913 P
05/04-02 53  4  1 48 83 SSW  2  2 2 1 WNW 16  3234  SE  6 16801 P
05/04-03 53  4  1 47 83   S  2  2 2 1 WNW 17  2903  SE  6 15576 P
05/04-04 53  4  1 45 86   S  2  2 2 1 WNW 17  2477  SE  7 14766 P
05/04-05 53  4  1 44 87   S  2  2 2 1 WNW 18  2052  SE  8 13451 P
05/04-06 56 12  2 44 86   S  2  2 2 1 WNW 18  1627 ESE  8 11630 P

KEY:

FORECAST    - MONTH/DAY-HOUR OF FORECAST
VALID AT    - /24-HOUR CLOCK LOCAL TIME/
SC          - SKY COVER /PERCENT/
PP          - PROBABILITY OF PRECIPITATION 0.01 INCH /PERCENT/
WR          - PROBABILITY OF WETTING RAIN 0.10 INCH /PERCENT/
AT          - TEMPERATURE /DEGREES F/
RH          - RELATIVE HUMIDITY /PERCENT/
20-FT WIND  - 20-FOOT WIND /MPH/
GST         - 20-FOOT WIND GUST /MPH/
HI          - HAINES INDEX
LAL         - LIGHTNING ACTIVITY LEVEL
15KFT WIND  - 15000 FEET ABOVE MEAN SEA LEVEL FREE-AIR WINDS /MPH/
MIXG HGT    - MIXING HEIGHT /FEET ABOVE GROUND LEVEL/
TRANS WIND  - TRANSPORT WINDS /MPH/
VENTL RATE  - VENTILATION RATE /KNOT-FEET/
AJTV RATNG  - SMOKE DISPERSION ADJECTIVE RATING
                P - POOR  F - FAIR  G - GOOD
                V - VERY GOOD  E - EXCELLENT

$$
FORECASTER...ENTREKIN
REQUESTED BY...GARRET BALL
TYPE OF REQUEST...PRESCRIBED
.TAG 20150501.BURCH.01/BOU





000
FNUS75 KBOU 011225
FWSBOU

SPOT FORECAST FOR BURCHFIELD RX...BOULDER COUNTY SHERIFFS OFFICE/PARKS AND OPEN SPA
NATIONAL WEATHER SERVICE DENVER/BOULDER CO
604 AM MDT FRI MAY 1 2015

FORECAST IS BASED ON IGNITION TIME OF 1300 MDT ON MAY 01.
IF CONDITIONS BECOME UNREPRESENTATIVE...CONTACT THE NATIONAL
WEATHER SERVICE.

.DISCUSSION...MOISTURE LEVELS HAVE INCREASED ACROSS COLORADO TODAY
WHICH WILL RESULT IN STRONGER STORMS THIS AFTERNOON AND EVENING.
EXPECT HEAVY RAIN AND SMALL HAIL WITH THE STORMS. TEMPERATURES WILL
BE COOLER TODAY ALONG WITH HIGHER HUMIDITY LEVELS. LOW LEVEL
INVERSIONS WILL KEEP SMOKE DISPERSAL POOR UNTIL MID AFTERNOON.

.TODAY...

SKY/WEATHER.........MOSTLY CLOUDY. PATCHY FOG UNTIL 0900. SLIGHT
                    CHANCE OF THUNDERSTORMS AFTER 1200 UNTIL
                    1400...THEN CHANCE OF THUNDERSTORMS.
MAX TEMPERATURE.....AROUND 67.
MIN HUMIDITY........47%.
WIND (20 FT)........UPSLOPE/UPVALLEY 4-10 MPH. GUSTY AND ERRATIC
                    WINDS EXPECTED NEAR THUNDERSTORMS AFTER 1200.
CWR.................5 PERCENT INCREASING TO 20 PERCENT.
MIXING HEIGHT.......5400-6400 FT AGL.
TRANSPORT WINDS.....LIGHT WINDS UNTIL 1200...THEN SOUTH AROUND 10
                    MPH.
SMOKE DISPERSAL.....POOR UNTIL 1500...THEN FAIR.

.TONIGHT...
SKY/WEATHER.........MOSTLY CLOUDY UNTIL 2100...THEN PARTLY
                    CLOUDY(35-45%). CHANCE OF THUNDERSTORMS UNTIL
                    2000...THEN SLIGHT CHANCE OF THUNDERSTORMS
                    UNTIL 2200.
MIN TEMPERATURE.....AROUND 45.
MAX HUMIDITY........86%.
WIND (20 FT)........DOWNSLOPE/DOWNVALLEY 2-8 MPH. GUSTY AND ERRATIC
                    WINDS EXPECTED NEAR THUNDERSTORMS UNTIL 2200.
CWR.................20 PERCENT DECREASING TO 5 PERCENT EARLY IN THE
                    EVENING.
MIXING HEIGHT.......5200-6200 FT AGL UNTIL 2100. BELOW 1000 FT AGL
                    AFTER 2400.
TRANSPORT WINDS.....SOUTH AROUND 10 MPH UNTIL 2400...THEN WEST.
SMOKE DISPERSAL.....FAIR UNTIL 2200...THEN POOR.

.SATURDAY...
SKY/WEATHER.........MOSTLY SUNNY UNTIL 0700...THEN PARTLY
                    CLOUDY(40-50%) UNTIL 1300...THEN MOSTLY CLOUDY.
                    SLIGHT CHANCE OF THUNDERSTORMS AFTER 1200.
MAX TEMPERATURE.....AROUND 79.
MIN HUMIDITY........24%.
WIND (20 FT)........UPSLOPE/UPVALLEY 4-10 MPH. GUSTY AND ERRATIC
                    WINDS EXPECTED NEAR THUNDERSTORMS AFTER 1200.
CWR.................5 PERCENT.
MIXING HEIGHT.......BELOW 1000 FT AGL UNTIL 0900. 11400-12400 FT
                    AGL AFTER 1200.
TRANSPORT WINDS.....LIGHT WINDS UNTIL 1200...THEN SOUTHWEST AROUND
                    10 MPH.
SMOKE DISPERSAL.....POOR UNTIL 1100. GOOD AFTER 1200.


FIRE WEATHER TABLE FOR BURCHFIELD RX.

+++  DATA IN THE FOLLOWING TABLE HAS BEEN SAMPLED DIRECTLY FROM THE
     FORECAST DATABASE.  VALUES IN THE TABLE MAY VARY SLIGHTLY FROM
     INFORMATION IN THE NARRATIVE FORECAST.  FEEDBACK WELCOME.  +++

FORECAST SC PP WR AT RH  20-FT  G H L  15KFT  MIXG  TRANS VENTL  AJTV
VALID AT  %  %  %  F  %   WIND  S I A   WIND   HGT   WIND  RATE RATNG
                           MPH  T   L    MPH   AGL    MPH KT-FT

05/01-06 73  2  0 46 96   N  5  5 2 1 WNW 13  1795 NNE  7 10325 P
05/01-07 75  3  1 47 95 NNE  5  5 2 1   W 13  2308  NE  6 10701 P
05/01-08 78  3  1 48 94 ENE  5  5 2 1   W 14  2822   E  5  9928 P
05/01-09 80  3  1 51 86 ENE  5  5 2 1   W 14  3336 ESE  2  8006 P
05/01-10 82  6  1 54 77   E  5  5 2 1   W 16  3821 ESE  5 13378 P
05/01-11 80  6  1 57 67 ESE  5  5 3 1   W 20  4305 SSE  6 19817 P
05/01-12 77 18  4 60 60  SE  5  5 3 3   W 22  4789   S  7 27324 P
05/01-13 75 24  5 63 54  SE  6  6 3 3   W 21  5405   S  7 32795 P
05/01-14 78 31 10 65 52 SSE  6  6 3 4   W 21  6020   S  7 38712 P
05/01-15 81 37 15 67 49   S  7  7 3 4   W 20  6635   S  8 45076  F
05/01-16 83 43 20 67 48   S  7  7 3 4   W 21  6537   S  8 46237  F
05/01-17 80 43 20 67 47   S  7  7 3 4   W 23  6440   S  8 47344  F
05/01-18 76 41 18 65 50   S  6  6 3 4   W 24  6342   S  9 48395  F
05/01-19 69 38 16 63 55   S  5  5 3 4   W 22  5704   S  9 45403  F
05/01-20 62 24  5 61 60   S  3  3 3 3   W 21  5066   S  9 41990  F
05/01-21 55 15  3 58 67   S  3  3 3 3   W 18  4427   S 10 38158 P
05/01-22 48  6  1 56 71   S  3  3 3 1   W 20  3265   S  9 26659 P
05/01-23 41  4  1 54 74  SW  5  5 3 1 WNW 22  2103 SSW  9 16216 P
05/02-00 34  1  0 52 77  SW  5  5 3 1 WNW 24   941 SSW  8  6829 P
05/02-01 32  1  0 50 81 WSW  5  5 3 1 WNW 23   837  SW  7  5225 P
05/02-02 30  1  0 49 82   W  5  5 3 1 WNW 23   733 WSW  6  3832 P
05/02-03 29  1  0 47 86 WNW  5  5 3 1 WNW 23   630   W  5  2650 P
05/02-04 27  1  0 46 85 WNW  5  5 3 1 WNW 23   630   W  6  3024 P
05/02-05 25  1  0 45 84   W  5  5 4 1 WNW 22   630   W  6  3399 P
05/02-06 27  0  0 46 76   W  5  5 4 1 WNW 22   631   W  7  3774 P
05/02-07 32  0  0 49 75   W  3  3 4 1 WNW 23   775   W  6  3866 P
05/02-08 37  0  0 54 66  SW  2  2 4 1   W 24   919   W  5  3670 P
05/02-09 42  0  0 59 57 SSW  2  2 4 1   W 25  1063   W  3  3250 P
05/02-10 46  2  0 65 46   S  2  2 4 1   W 28  4190   W  5 18028 P
05/02-11 51  5  1 70 37   S  2  2 3 1   W 29  7316   W  7 40600  F
05/02-12 56 12  2 74 30 SSE  3  3 3 2   W 31 10443 WSW  8 70967   G
05/02-13 61 14  3 77 27   S  5  5 3 2   W 29 11328 WSW  8 80021   G
05/02-14 65 17  3 78 25  SW  5  5 3 3   W 26 12213 WSW  8 89549   G
05/02-15 70 19  4 79 24 WSW  6  6 3 3   W 23 13099 WSW  9 99552   G
05/02-16 69 17  3 79 24 WSW  6  6 3 3   W 23 12208 WSW  9 99540   G
05/02-17 66 14  3 78 25  SW  7  7 4 2   W 22 11317  SW 10 98542   G
05/02-18 65 12  2 75 28  SW  7  7 4 2   W 22 10426  SW 10 96558   G
05/02-19 65 12  2 72 32  SW  7  7 4 2   W 22  7441  SW 12 77194   G
05/02-20 65 12  2 67 39 WSW  7  7 5 2 WNW 22  4455 WSW 13 51179  F
05/02-21 53  1  0 63 46 WSW  7  7 5 1 WNW 22  1469 WSW 15 18514 P
05/02-22 53  1  0 61 49 WSW  7  7 5 1 WNW 22  1261 WSW 13 14241 P
05/02-23 53  1  0 59 52   W  6  6 4 1 WNW 22  1053   W 12 10512 P
05/03-00 40  0  0 57 55   W  6  6 4 1 WNW 23   845   W 10  7328 P
05/03-01 40  0  0 56 56   W  6  6 4 1 WNW 22   788   W 10  6800 P
05/03-02 40  0  0 53 60   W  6  6 4 1 WNW 21   732   W 10  6278 P
05/03-03 40  0  0 51 63   W  6  6 4 1 WNW 20   676   W 10  5761 P
05/03-04 40  0  0 49 67   W  6  6 4 1 WNW 17   665   W  9  5510 P
05/03-05 40  0  0 47 71   W  6  6 4 1 WNW 15   653   W  9  5264 P
05/03-06 56  8  2 48 68   W  6  6 4 1   W 13   642   W  9  5024 P
05/03-07 56  8  2 51 63   W  5  5 4 1   W 12   845   W  8  5830 P
05/03-08 56  8  2 57 53   W  5  5 4 1   W 10  1048 WNW  7  6260 P
05/03-09 56  8  2 63 44 WNW  3  3 4 1   W  9  1251 WNW  6  6314 P
05/03-10 56  8  2 68 37  NW  3  3 4 1 WSW  9  4971 WNW  5 20772 P
05/03-11 56  8  2 72 32 NNE  3  3 3 1 WSW  9  8692  NW  3 28752 P
05/03-12 77 30  9 75 28  NE  3  3 3 4 WSW  9 12413  NW  2 30254 P
05/03-13 77 30  9 76 28 NNE  5  5 3 4  SW  9 12378 NNW  2 26602 P
05/03-14 77 30  9 76 28   N  6  6 3 4   S  9 12343   N  2 22970 P
05/03-15 77 30  9 75 29   N  7  7 3 4 SSE  9 12308 NNE  2 19359 P
05/03-16 77 30  9 72 33   N  8  8 3 4   S 12 10784   N  2 18965 P
05/03-17 77 30  9 69 38   N  8  8 2 4   S 15  9260   N  2 18006 P
05/03-18 75 27  7 65 45   N  8  8 2 4   S 17  7737   N  2 16481 P
05/03-19 75 27  7 62 51 NNE  8  8 2 4 SSW 15  6714   N  5 28021 P
05/03-20 75 27  7 59 59  NE  7  7 2 4  SW 13  5691 ENE  7 35381 P
05/03-21 75 27  7 56 66 ENE  6  6 2 4  SW 10  4668   E  9 38560 P
05/03-22 75 27  7 54 72   E  5  5 2 4 WSW 12  4410   E  8 31426 P
05/03-23 75 27  7 52 78   S  5  5 2 4 WNW 13  4153 ESE  7 24877 P
05/04-00 53  4  1 51 80  SW  3  3 2 1  NW 15  3895 ESE  6 18912 P
05/04-01 53  4  1 50 81 SSW  3  3 2 1  NW 15  3564  SE  6 17913 P
05/04-02 53  4  1 48 83 SSW  2  2 2 1 WNW 16  3234  SE  6 16801 P
05/04-03 53  4  1 47 83   S  2  2 2 1 WNW 17  2903  SE  6 15576 P
05/04-04 53  4  1 45 86   S  2  2 2 1 WNW 17  2477  SE  7 14766 P
05/04-05 53  4  1 44 87   S  2  2 2 1 WNW 18  2052  SE  8 13451 P
05/04-06 56 12  2 44 86   S  2  2 2 1 WNW 18  1627 ESE  8 11630 P

KEY:

FORECAST    - MONTH/DAY-HOUR OF FORECAST
VALID AT    - /24-HOUR CLOCK LOCAL TIME/
SC          - SKY COVER /PERCENT/
PP          - PROBABILITY OF PRECIPITATION 0.01 INCH /PERCENT/
WR          - PROBABILITY OF WETTING RAIN 0.10 INCH /PERCENT/
AT          - TEMPERATURE /DEGREES F/
RH          - RELATIVE HUMIDITY /PERCENT/
20-FT WIND  - 20-FOOT WIND /MPH/
GST         - 20-FOOT WIND GUST /MPH/
HI          - HAINES INDEX
LAL         - LIGHTNING ACTIVITY LEVEL
15KFT WIND  - 15000 FEET ABOVE MEAN SEA LEVEL FREE-AIR WINDS /MPH/
MIXG HGT    - MIXING HEIGHT /FEET ABOVE GROUND LEVEL/
TRANS WIND  - TRANSPORT WINDS /MPH/
VENTL RATE  - VENTILATION RATE /KNOT-FEET/
AJTV RATNG  - SMOKE DISPERSION ADJECTIVE RATING
                P - POOR  F - FAIR  G - GOOD
                V - VERY GOOD  E - EXCELLENT

$$
FORECASTER...ENTREKIN
REQUESTED BY...GARRET BALL
TYPE OF REQUEST...PRESCRIBED
.TAG 20150501.BURCH.01/BOU





000
FNUS75 KBOU 011225
FWSBOU

SPOT FORECAST FOR BURCHFIELD RX...BOULDER COUNTY SHERIFFS OFFICE/PARKS AND OPEN SPA
NATIONAL WEATHER SERVICE DENVER/BOULDER CO
604 AM MDT FRI MAY 1 2015

FORECAST IS BASED ON IGNITION TIME OF 1300 MDT ON MAY 01.
IF CONDITIONS BECOME UNREPRESENTATIVE...CONTACT THE NATIONAL
WEATHER SERVICE.

.DISCUSSION...MOISTURE LEVELS HAVE INCREASED ACROSS COLORADO TODAY
WHICH WILL RESULT IN STRONGER STORMS THIS AFTERNOON AND EVENING.
EXPECT HEAVY RAIN AND SMALL HAIL WITH THE STORMS. TEMPERATURES WILL
BE COOLER TODAY ALONG WITH HIGHER HUMIDITY LEVELS. LOW LEVEL
INVERSIONS WILL KEEP SMOKE DISPERSAL POOR UNTIL MID AFTERNOON.

.TODAY...

SKY/WEATHER.........MOSTLY CLOUDY. PATCHY FOG UNTIL 0900. SLIGHT
                    CHANCE OF THUNDERSTORMS AFTER 1200 UNTIL
                    1400...THEN CHANCE OF THUNDERSTORMS.
MAX TEMPERATURE.....AROUND 67.
MIN HUMIDITY........47%.
WIND (20 FT)........UPSLOPE/UPVALLEY 4-10 MPH. GUSTY AND ERRATIC
                    WINDS EXPECTED NEAR THUNDERSTORMS AFTER 1200.
CWR.................5 PERCENT INCREASING TO 20 PERCENT.
MIXING HEIGHT.......5400-6400 FT AGL.
TRANSPORT WINDS.....LIGHT WINDS UNTIL 1200...THEN SOUTH AROUND 10
                    MPH.
SMOKE DISPERSAL.....POOR UNTIL 1500...THEN FAIR.

.TONIGHT...
SKY/WEATHER.........MOSTLY CLOUDY UNTIL 2100...THEN PARTLY
                    CLOUDY(35-45%). CHANCE OF THUNDERSTORMS UNTIL
                    2000...THEN SLIGHT CHANCE OF THUNDERSTORMS
                    UNTIL 2200.
MIN TEMPERATURE.....AROUND 45.
MAX HUMIDITY........86%.
WIND (20 FT)........DOWNSLOPE/DOWNVALLEY 2-8 MPH. GUSTY AND ERRATIC
                    WINDS EXPECTED NEAR THUNDERSTORMS UNTIL 2200.
CWR.................20 PERCENT DECREASING TO 5 PERCENT EARLY IN THE
                    EVENING.
MIXING HEIGHT.......5200-6200 FT AGL UNTIL 2100. BELOW 1000 FT AGL
                    AFTER 2400.
TRANSPORT WINDS.....SOUTH AROUND 10 MPH UNTIL 2400...THEN WEST.
SMOKE DISPERSAL.....FAIR UNTIL 2200...THEN POOR.

.SATURDAY...
SKY/WEATHER.........MOSTLY SUNNY UNTIL 0700...THEN PARTLY
                    CLOUDY(40-50%) UNTIL 1300...THEN MOSTLY CLOUDY.
                    SLIGHT CHANCE OF THUNDERSTORMS AFTER 1200.
MAX TEMPERATURE.....AROUND 79.
MIN HUMIDITY........24%.
WIND (20 FT)........UPSLOPE/UPVALLEY 4-10 MPH. GUSTY AND ERRATIC
                    WINDS EXPECTED NEAR THUNDERSTORMS AFTER 1200.
CWR.................5 PERCENT.
MIXING HEIGHT.......BELOW 1000 FT AGL UNTIL 0900. 11400-12400 FT
                    AGL AFTER 1200.
TRANSPORT WINDS.....LIGHT WINDS UNTIL 1200...THEN SOUTHWEST AROUND
                    10 MPH.
SMOKE DISPERSAL.....POOR UNTIL 1100. GOOD AFTER 1200.


FIRE WEATHER TABLE FOR BURCHFIELD RX.

+++  DATA IN THE FOLLOWING TABLE HAS BEEN SAMPLED DIRECTLY FROM THE
     FORECAST DATABASE.  VALUES IN THE TABLE MAY VARY SLIGHTLY FROM
     INFORMATION IN THE NARRATIVE FORECAST.  FEEDBACK WELCOME.  +++

FORECAST SC PP WR AT RH  20-FT  G H L  15KFT  MIXG  TRANS VENTL  AJTV
VALID AT  %  %  %  F  %   WIND  S I A   WIND   HGT   WIND  RATE RATNG
                           MPH  T   L    MPH   AGL    MPH KT-FT

05/01-06 73  2  0 46 96   N  5  5 2 1 WNW 13  1795 NNE  7 10325 P
05/01-07 75  3  1 47 95 NNE  5  5 2 1   W 13  2308  NE  6 10701 P
05/01-08 78  3  1 48 94 ENE  5  5 2 1   W 14  2822   E  5  9928 P
05/01-09 80  3  1 51 86 ENE  5  5 2 1   W 14  3336 ESE  2  8006 P
05/01-10 82  6  1 54 77   E  5  5 2 1   W 16  3821 ESE  5 13378 P
05/01-11 80  6  1 57 67 ESE  5  5 3 1   W 20  4305 SSE  6 19817 P
05/01-12 77 18  4 60 60  SE  5  5 3 3   W 22  4789   S  7 27324 P
05/01-13 75 24  5 63 54  SE  6  6 3 3   W 21  5405   S  7 32795 P
05/01-14 78 31 10 65 52 SSE  6  6 3 4   W 21  6020   S  7 38712 P
05/01-15 81 37 15 67 49   S  7  7 3 4   W 20  6635   S  8 45076  F
05/01-16 83 43 20 67 48   S  7  7 3 4   W 21  6537   S  8 46237  F
05/01-17 80 43 20 67 47   S  7  7 3 4   W 23  6440   S  8 47344  F
05/01-18 76 41 18 65 50   S  6  6 3 4   W 24  6342   S  9 48395  F
05/01-19 69 38 16 63 55   S  5  5 3 4   W 22  5704   S  9 45403  F
05/01-20 62 24  5 61 60   S  3  3 3 3   W 21  5066   S  9 41990  F
05/01-21 55 15  3 58 67   S  3  3 3 3   W 18  4427   S 10 38158 P
05/01-22 48  6  1 56 71   S  3  3 3 1   W 20  3265   S  9 26659 P
05/01-23 41  4  1 54 74  SW  5  5 3 1 WNW 22  2103 SSW  9 16216 P
05/02-00 34  1  0 52 77  SW  5  5 3 1 WNW 24   941 SSW  8  6829 P
05/02-01 32  1  0 50 81 WSW  5  5 3 1 WNW 23   837  SW  7  5225 P
05/02-02 30  1  0 49 82   W  5  5 3 1 WNW 23   733 WSW  6  3832 P
05/02-03 29  1  0 47 86 WNW  5  5 3 1 WNW 23   630   W  5  2650 P
05/02-04 27  1  0 46 85 WNW  5  5 3 1 WNW 23   630   W  6  3024 P
05/02-05 25  1  0 45 84   W  5  5 4 1 WNW 22   630   W  6  3399 P
05/02-06 27  0  0 46 76   W  5  5 4 1 WNW 22   631   W  7  3774 P
05/02-07 32  0  0 49 75   W  3  3 4 1 WNW 23   775   W  6  3866 P
05/02-08 37  0  0 54 66  SW  2  2 4 1   W 24   919   W  5  3670 P
05/02-09 42  0  0 59 57 SSW  2  2 4 1   W 25  1063   W  3  3250 P
05/02-10 46  2  0 65 46   S  2  2 4 1   W 28  4190   W  5 18028 P
05/02-11 51  5  1 70 37   S  2  2 3 1   W 29  7316   W  7 40600  F
05/02-12 56 12  2 74 30 SSE  3  3 3 2   W 31 10443 WSW  8 70967   G
05/02-13 61 14  3 77 27   S  5  5 3 2   W 29 11328 WSW  8 80021   G
05/02-14 65 17  3 78 25  SW  5  5 3 3   W 26 12213 WSW  8 89549   G
05/02-15 70 19  4 79 24 WSW  6  6 3 3   W 23 13099 WSW  9 99552   G
05/02-16 69 17  3 79 24 WSW  6  6 3 3   W 23 12208 WSW  9 99540   G
05/02-17 66 14  3 78 25  SW  7  7 4 2   W 22 11317  SW 10 98542   G
05/02-18 65 12  2 75 28  SW  7  7 4 2   W 22 10426  SW 10 96558   G
05/02-19 65 12  2 72 32  SW  7  7 4 2   W 22  7441  SW 12 77194   G
05/02-20 65 12  2 67 39 WSW  7  7 5 2 WNW 22  4455 WSW 13 51179  F
05/02-21 53  1  0 63 46 WSW  7  7 5 1 WNW 22  1469 WSW 15 18514 P
05/02-22 53  1  0 61 49 WSW  7  7 5 1 WNW 22  1261 WSW 13 14241 P
05/02-23 53  1  0 59 52   W  6  6 4 1 WNW 22  1053   W 12 10512 P
05/03-00 40  0  0 57 55   W  6  6 4 1 WNW 23   845   W 10  7328 P
05/03-01 40  0  0 56 56   W  6  6 4 1 WNW 22   788   W 10  6800 P
05/03-02 40  0  0 53 60   W  6  6 4 1 WNW 21   732   W 10  6278 P
05/03-03 40  0  0 51 63   W  6  6 4 1 WNW 20   676   W 10  5761 P
05/03-04 40  0  0 49 67   W  6  6 4 1 WNW 17   665   W  9  5510 P
05/03-05 40  0  0 47 71   W  6  6 4 1 WNW 15   653   W  9  5264 P
05/03-06 56  8  2 48 68   W  6  6 4 1   W 13   642   W  9  5024 P
05/03-07 56  8  2 51 63   W  5  5 4 1   W 12   845   W  8  5830 P
05/03-08 56  8  2 57 53   W  5  5 4 1   W 10  1048 WNW  7  6260 P
05/03-09 56  8  2 63 44 WNW  3  3 4 1   W  9  1251 WNW  6  6314 P
05/03-10 56  8  2 68 37  NW  3  3 4 1 WSW  9  4971 WNW  5 20772 P
05/03-11 56  8  2 72 32 NNE  3  3 3 1 WSW  9  8692  NW  3 28752 P
05/03-12 77 30  9 75 28  NE  3  3 3 4 WSW  9 12413  NW  2 30254 P
05/03-13 77 30  9 76 28 NNE  5  5 3 4  SW  9 12378 NNW  2 26602 P
05/03-14 77 30  9 76 28   N  6  6 3 4   S  9 12343   N  2 22970 P
05/03-15 77 30  9 75 29   N  7  7 3 4 SSE  9 12308 NNE  2 19359 P
05/03-16 77 30  9 72 33   N  8  8 3 4   S 12 10784   N  2 18965 P
05/03-17 77 30  9 69 38   N  8  8 2 4   S 15  9260   N  2 18006 P
05/03-18 75 27  7 65 45   N  8  8 2 4   S 17  7737   N  2 16481 P
05/03-19 75 27  7 62 51 NNE  8  8 2 4 SSW 15  6714   N  5 28021 P
05/03-20 75 27  7 59 59  NE  7  7 2 4  SW 13  5691 ENE  7 35381 P
05/03-21 75 27  7 56 66 ENE  6  6 2 4  SW 10  4668   E  9 38560 P
05/03-22 75 27  7 54 72   E  5  5 2 4 WSW 12  4410   E  8 31426 P
05/03-23 75 27  7 52 78   S  5  5 2 4 WNW 13  4153 ESE  7 24877 P
05/04-00 53  4  1 51 80  SW  3  3 2 1  NW 15  3895 ESE  6 18912 P
05/04-01 53  4  1 50 81 SSW  3  3 2 1  NW 15  3564  SE  6 17913 P
05/04-02 53  4  1 48 83 SSW  2  2 2 1 WNW 16  3234  SE  6 16801 P
05/04-03 53  4  1 47 83   S  2  2 2 1 WNW 17  2903  SE  6 15576 P
05/04-04 53  4  1 45 86   S  2  2 2 1 WNW 17  2477  SE  7 14766 P
05/04-05 53  4  1 44 87   S  2  2 2 1 WNW 18  2052  SE  8 13451 P
05/04-06 56 12  2 44 86   S  2  2 2 1 WNW 18  1627 ESE  8 11630 P

KEY:

FORECAST    - MONTH/DAY-HOUR OF FORECAST
VALID AT    - /24-HOUR CLOCK LOCAL TIME/
SC          - SKY COVER /PERCENT/
PP          - PROBABILITY OF PRECIPITATION 0.01 INCH /PERCENT/
WR          - PROBABILITY OF WETTING RAIN 0.10 INCH /PERCENT/
AT          - TEMPERATURE /DEGREES F/
RH          - RELATIVE HUMIDITY /PERCENT/
20-FT WIND  - 20-FOOT WIND /MPH/
GST         - 20-FOOT WIND GUST /MPH/
HI          - HAINES INDEX
LAL         - LIGHTNING ACTIVITY LEVEL
15KFT WIND  - 15000 FEET ABOVE MEAN SEA LEVEL FREE-AIR WINDS /MPH/
MIXG HGT    - MIXING HEIGHT /FEET ABOVE GROUND LEVEL/
TRANS WIND  - TRANSPORT WINDS /MPH/
VENTL RATE  - VENTILATION RATE /KNOT-FEET/
AJTV RATNG  - SMOKE DISPERSION ADJECTIVE RATING
                P - POOR  F - FAIR  G - GOOD
                V - VERY GOOD  E - EXCELLENT

$$
FORECASTER...ENTREKIN
REQUESTED BY...GARRET BALL
TYPE OF REQUEST...PRESCRIBED
.TAG 20150501.BURCH.01/BOU




000
FNUS75 KBOU 011225
FWSBOU

SPOT FORECAST FOR BURCHFIELD RX...BOULDER COUNTY SHERIFFS OFFICE/PARKS AND OPEN SPA
NATIONAL WEATHER SERVICE DENVER/BOULDER CO
604 AM MDT FRI MAY 1 2015

FORECAST IS BASED ON IGNITION TIME OF 1300 MDT ON MAY 01.
IF CONDITIONS BECOME UNREPRESENTATIVE...CONTACT THE NATIONAL
WEATHER SERVICE.

.DISCUSSION...MOISTURE LEVELS HAVE INCREASED ACROSS COLORADO TODAY
WHICH WILL RESULT IN STRONGER STORMS THIS AFTERNOON AND EVENING.
EXPECT HEAVY RAIN AND SMALL HAIL WITH THE STORMS. TEMPERATURES WILL
BE COOLER TODAY ALONG WITH HIGHER HUMIDITY LEVELS. LOW LEVEL
INVERSIONS WILL KEEP SMOKE DISPERSAL POOR UNTIL MID AFTERNOON.

.TODAY...

SKY/WEATHER.........MOSTLY CLOUDY. PATCHY FOG UNTIL 0900. SLIGHT
                    CHANCE OF THUNDERSTORMS AFTER 1200 UNTIL
                    1400...THEN CHANCE OF THUNDERSTORMS.
MAX TEMPERATURE.....AROUND 67.
MIN HUMIDITY........47%.
WIND (20 FT)........UPSLOPE/UPVALLEY 4-10 MPH. GUSTY AND ERRATIC
                    WINDS EXPECTED NEAR THUNDERSTORMS AFTER 1200.
CWR.................5 PERCENT INCREASING TO 20 PERCENT.
MIXING HEIGHT.......5400-6400 FT AGL.
TRANSPORT WINDS.....LIGHT WINDS UNTIL 1200...THEN SOUTH AROUND 10
                    MPH.
SMOKE DISPERSAL.....POOR UNTIL 1500...THEN FAIR.

.TONIGHT...
SKY/WEATHER.........MOSTLY CLOUDY UNTIL 2100...THEN PARTLY
                    CLOUDY(35-45%). CHANCE OF THUNDERSTORMS UNTIL
                    2000...THEN SLIGHT CHANCE OF THUNDERSTORMS
                    UNTIL 2200.
MIN TEMPERATURE.....AROUND 45.
MAX HUMIDITY........86%.
WIND (20 FT)........DOWNSLOPE/DOWNVALLEY 2-8 MPH. GUSTY AND ERRATIC
                    WINDS EXPECTED NEAR THUNDERSTORMS UNTIL 2200.
CWR.................20 PERCENT DECREASING TO 5 PERCENT EARLY IN THE
                    EVENING.
MIXING HEIGHT.......5200-6200 FT AGL UNTIL 2100. BELOW 1000 FT AGL
                    AFTER 2400.
TRANSPORT WINDS.....SOUTH AROUND 10 MPH UNTIL 2400...THEN WEST.
SMOKE DISPERSAL.....FAIR UNTIL 2200...THEN POOR.

.SATURDAY...
SKY/WEATHER.........MOSTLY SUNNY UNTIL 0700...THEN PARTLY
                    CLOUDY(40-50%) UNTIL 1300...THEN MOSTLY CLOUDY.
                    SLIGHT CHANCE OF THUNDERSTORMS AFTER 1200.
MAX TEMPERATURE.....AROUND 79.
MIN HUMIDITY........24%.
WIND (20 FT)........UPSLOPE/UPVALLEY 4-10 MPH. GUSTY AND ERRATIC
                    WINDS EXPECTED NEAR THUNDERSTORMS AFTER 1200.
CWR.................5 PERCENT.
MIXING HEIGHT.......BELOW 1000 FT AGL UNTIL 0900. 11400-12400 FT
                    AGL AFTER 1200.
TRANSPORT WINDS.....LIGHT WINDS UNTIL 1200...THEN SOUTHWEST AROUND
                    10 MPH.
SMOKE DISPERSAL.....POOR UNTIL 1100. GOOD AFTER 1200.


FIRE WEATHER TABLE FOR BURCHFIELD RX.

+++  DATA IN THE FOLLOWING TABLE HAS BEEN SAMPLED DIRECTLY FROM THE
     FORECAST DATABASE.  VALUES IN THE TABLE MAY VARY SLIGHTLY FROM
     INFORMATION IN THE NARRATIVE FORECAST.  FEEDBACK WELCOME.  +++

FORECAST SC PP WR AT RH  20-FT  G H L  15KFT  MIXG  TRANS VENTL  AJTV
VALID AT  %  %  %  F  %   WIND  S I A   WIND   HGT   WIND  RATE RATNG
                           MPH  T   L    MPH   AGL    MPH KT-FT

05/01-06 73  2  0 46 96   N  5  5 2 1 WNW 13  1795 NNE  7 10325 P
05/01-07 75  3  1 47 95 NNE  5  5 2 1   W 13  2308  NE  6 10701 P
05/01-08 78  3  1 48 94 ENE  5  5 2 1   W 14  2822   E  5  9928 P
05/01-09 80  3  1 51 86 ENE  5  5 2 1   W 14  3336 ESE  2  8006 P
05/01-10 82  6  1 54 77   E  5  5 2 1   W 16  3821 ESE  5 13378 P
05/01-11 80  6  1 57 67 ESE  5  5 3 1   W 20  4305 SSE  6 19817 P
05/01-12 77 18  4 60 60  SE  5  5 3 3   W 22  4789   S  7 27324 P
05/01-13 75 24  5 63 54  SE  6  6 3 3   W 21  5405   S  7 32795 P
05/01-14 78 31 10 65 52 SSE  6  6 3 4   W 21  6020   S  7 38712 P
05/01-15 81 37 15 67 49   S  7  7 3 4   W 20  6635   S  8 45076  F
05/01-16 83 43 20 67 48   S  7  7 3 4   W 21  6537   S  8 46237  F
05/01-17 80 43 20 67 47   S  7  7 3 4   W 23  6440   S  8 47344  F
05/01-18 76 41 18 65 50   S  6  6 3 4   W 24  6342   S  9 48395  F
05/01-19 69 38 16 63 55   S  5  5 3 4   W 22  5704   S  9 45403  F
05/01-20 62 24  5 61 60   S  3  3 3 3   W 21  5066   S  9 41990  F
05/01-21 55 15  3 58 67   S  3  3 3 3   W 18  4427   S 10 38158 P
05/01-22 48  6  1 56 71   S  3  3 3 1   W 20  3265   S  9 26659 P
05/01-23 41  4  1 54 74  SW  5  5 3 1 WNW 22  2103 SSW  9 16216 P
05/02-00 34  1  0 52 77  SW  5  5 3 1 WNW 24   941 SSW  8  6829 P
05/02-01 32  1  0 50 81 WSW  5  5 3 1 WNW 23   837  SW  7  5225 P
05/02-02 30  1  0 49 82   W  5  5 3 1 WNW 23   733 WSW  6  3832 P
05/02-03 29  1  0 47 86 WNW  5  5 3 1 WNW 23   630   W  5  2650 P
05/02-04 27  1  0 46 85 WNW  5  5 3 1 WNW 23   630   W  6  3024 P
05/02-05 25  1  0 45 84   W  5  5 4 1 WNW 22   630   W  6  3399 P
05/02-06 27  0  0 46 76   W  5  5 4 1 WNW 22   631   W  7  3774 P
05/02-07 32  0  0 49 75   W  3  3 4 1 WNW 23   775   W  6  3866 P
05/02-08 37  0  0 54 66  SW  2  2 4 1   W 24   919   W  5  3670 P
05/02-09 42  0  0 59 57 SSW  2  2 4 1   W 25  1063   W  3  3250 P
05/02-10 46  2  0 65 46   S  2  2 4 1   W 28  4190   W  5 18028 P
05/02-11 51  5  1 70 37   S  2  2 3 1   W 29  7316   W  7 40600  F
05/02-12 56 12  2 74 30 SSE  3  3 3 2   W 31 10443 WSW  8 70967   G
05/02-13 61 14  3 77 27   S  5  5 3 2   W 29 11328 WSW  8 80021   G
05/02-14 65 17  3 78 25  SW  5  5 3 3   W 26 12213 WSW  8 89549   G
05/02-15 70 19  4 79 24 WSW  6  6 3 3   W 23 13099 WSW  9 99552   G
05/02-16 69 17  3 79 24 WSW  6  6 3 3   W 23 12208 WSW  9 99540   G
05/02-17 66 14  3 78 25  SW  7  7 4 2   W 22 11317  SW 10 98542   G
05/02-18 65 12  2 75 28  SW  7  7 4 2   W 22 10426  SW 10 96558   G
05/02-19 65 12  2 72 32  SW  7  7 4 2   W 22  7441  SW 12 77194   G
05/02-20 65 12  2 67 39 WSW  7  7 5 2 WNW 22  4455 WSW 13 51179  F
05/02-21 53  1  0 63 46 WSW  7  7 5 1 WNW 22  1469 WSW 15 18514 P
05/02-22 53  1  0 61 49 WSW  7  7 5 1 WNW 22  1261 WSW 13 14241 P
05/02-23 53  1  0 59 52   W  6  6 4 1 WNW 22  1053   W 12 10512 P
05/03-00 40  0  0 57 55   W  6  6 4 1 WNW 23   845   W 10  7328 P
05/03-01 40  0  0 56 56   W  6  6 4 1 WNW 22   788   W 10  6800 P
05/03-02 40  0  0 53 60   W  6  6 4 1 WNW 21   732   W 10  6278 P
05/03-03 40  0  0 51 63   W  6  6 4 1 WNW 20   676   W 10  5761 P
05/03-04 40  0  0 49 67   W  6  6 4 1 WNW 17   665   W  9  5510 P
05/03-05 40  0  0 47 71   W  6  6 4 1 WNW 15   653   W  9  5264 P
05/03-06 56  8  2 48 68   W  6  6 4 1   W 13   642   W  9  5024 P
05/03-07 56  8  2 51 63   W  5  5 4 1   W 12   845   W  8  5830 P
05/03-08 56  8  2 57 53   W  5  5 4 1   W 10  1048 WNW  7  6260 P
05/03-09 56  8  2 63 44 WNW  3  3 4 1   W  9  1251 WNW  6  6314 P
05/03-10 56  8  2 68 37  NW  3  3 4 1 WSW  9  4971 WNW  5 20772 P
05/03-11 56  8  2 72 32 NNE  3  3 3 1 WSW  9  8692  NW  3 28752 P
05/03-12 77 30  9 75 28  NE  3  3 3 4 WSW  9 12413  NW  2 30254 P
05/03-13 77 30  9 76 28 NNE  5  5 3 4  SW  9 12378 NNW  2 26602 P
05/03-14 77 30  9 76 28   N  6  6 3 4   S  9 12343   N  2 22970 P
05/03-15 77 30  9 75 29   N  7  7 3 4 SSE  9 12308 NNE  2 19359 P
05/03-16 77 30  9 72 33   N  8  8 3 4   S 12 10784   N  2 18965 P
05/03-17 77 30  9 69 38   N  8  8 2 4   S 15  9260   N  2 18006 P
05/03-18 75 27  7 65 45   N  8  8 2 4   S 17  7737   N  2 16481 P
05/03-19 75 27  7 62 51 NNE  8  8 2 4 SSW 15  6714   N  5 28021 P
05/03-20 75 27  7 59 59  NE  7  7 2 4  SW 13  5691 ENE  7 35381 P
05/03-21 75 27  7 56 66 ENE  6  6 2 4  SW 10  4668   E  9 38560 P
05/03-22 75 27  7 54 72   E  5  5 2 4 WSW 12  4410   E  8 31426 P
05/03-23 75 27  7 52 78   S  5  5 2 4 WNW 13  4153 ESE  7 24877 P
05/04-00 53  4  1 51 80  SW  3  3 2 1  NW 15  3895 ESE  6 18912 P
05/04-01 53  4  1 50 81 SSW  3  3 2 1  NW 15  3564  SE  6 17913 P
05/04-02 53  4  1 48 83 SSW  2  2 2 1 WNW 16  3234  SE  6 16801 P
05/04-03 53  4  1 47 83   S  2  2 2 1 WNW 17  2903  SE  6 15576 P
05/04-04 53  4  1 45 86   S  2  2 2 1 WNW 17  2477  SE  7 14766 P
05/04-05 53  4  1 44 87   S  2  2 2 1 WNW 18  2052  SE  8 13451 P
05/04-06 56 12  2 44 86   S  2  2 2 1 WNW 18  1627 ESE  8 11630 P

KEY:

FORECAST    - MONTH/DAY-HOUR OF FORECAST
VALID AT    - /24-HOUR CLOCK LOCAL TIME/
SC          - SKY COVER /PERCENT/
PP          - PROBABILITY OF PRECIPITATION 0.01 INCH /PERCENT/
WR          - PROBABILITY OF WETTING RAIN 0.10 INCH /PERCENT/
AT          - TEMPERATURE /DEGREES F/
RH          - RELATIVE HUMIDITY /PERCENT/
20-FT WIND  - 20-FOOT WIND /MPH/
GST         - 20-FOOT WIND GUST /MPH/
HI          - HAINES INDEX
LAL         - LIGHTNING ACTIVITY LEVEL
15KFT WIND  - 15000 FEET ABOVE MEAN SEA LEVEL FREE-AIR WINDS /MPH/
MIXG HGT    - MIXING HEIGHT /FEET ABOVE GROUND LEVEL/
TRANS WIND  - TRANSPORT WINDS /MPH/
VENTL RATE  - VENTILATION RATE /KNOT-FEET/
AJTV RATNG  - SMOKE DISPERSION ADJECTIVE RATING
                P - POOR  F - FAIR  G - GOOD
                V - VERY GOOD  E - EXCELLENT

$$
FORECASTER...ENTREKIN
REQUESTED BY...GARRET BALL
TYPE OF REQUEST...PRESCRIBED
.TAG 20150501.BURCH.01/BOU




    US Dept of Commerce
    National Oceanic and Atmospheric Administration
    National Weather Service
    1325 East West Highway
    Silver Spring, MD 20910
    Page Author: NWS Internet Services Team
Disclaimer
Information Quality
Credits
Glossary
Privacy Policy
Freedom of Information Act (FOIA)
About Us
Career Opportunities